sensor_id;sensor_type;location;lat;lon;timestamp;temperature;humidity
1536;DHT22;761;50.074;8.228;2022-11-14T00:00:32;4.50;1.00
1536;DHT22;761;50.074;8.228;2022-11-14T00:03:21;4.50;1.00
1536;DHT22;761;50.074;8.228;2022-11-14T00:06:08;4.50;1.00
1536;DHT22;761;50.074;8.228;2022-11-14T00:08:56;4.60;1.00
1536;DHT22;761;50.074;8.228;2022-11-14T00:11:43;4.60;1.00
1536;DHT22;761;50.074;8.228;2022-11-14T00:14:30;4.50;1.00
1536;DHT22;761;50.074;8.228;2022-11-14T00:17:17;4.40;1.00
1536;DHT22;761;50.074;8.228;2022-11-14T00:20:07;4.40;1.00
1536;DHT22;761;50.074;8.228;2022-11-14T00:22:54;4.40;1.00
1536;DHT22;761;50.074;8.228;2022-11-14T00:25:43;4.30;1.00
1536;DHT22;761;50.074;8.228;2022-11-14T00:28:30;4.30;1.00
1536;DHT22;761;50.074;8.228;2022-11-14T00:31:17;4.30;1.00
1536;DHT22;761;50.074;8.228;2022-11-14T00:34:04;4.30;1.00
1536;DHT22;761;50.074;8.228;2022-11-14T00:36:53;4.30;1.00
1536;DHT22;761;50.074;8.228;2022-11-14T00:39:39;4.30;1.00
1536;DHT22;761;50.074;8.228;2022-11-14T00:42:26;4.30;1.00
1536;DHT22;761;50.074;8.228;2022-11-14T00:45:14;4.30;1.00
1536;DHT22;761;50.074;8.228;2022-11-14T00:48:01;4.20;1.00
1536;DHT22;761;50.074;8.228;2022-11-14T00:50:47;4.10;1.00
1536;DHT22;761;50.074;8.228;2022-11-14T00:53:36;4.10;1.00
1536;DHT22;761;50.074;8.228;2022-11-14T00:56:24;4.10;1.00
1536;DHT22;761;50.074;8.228;2022-11-14T00:59:11;4.20;1.00
1536;DHT22;761;50.074;8.228;2022-11-14T01:01:58;4.10;1.00
1536;DHT22;761;50.074;8.228;2022-11-14T01:04:46;4.20;1.00
1536;DHT22;761;50.074;8.228;2022-11-14T01:07:32;4.30;1.00
1536;DHT22;761;50.074;8.228;2022-11-14T01:10:20;4.70;1.00
1536;DHT22;761;50.074;8.228;2022-11-14T01:13:08;5.10;1.00
1536;DHT22;761;50.074;8.228;2022-11-14T01:15:58;5.50;1.00
1536;DHT22;761;50.074;8.228;2022-11-14T01:18:45;5.50;1.00
1536;DHT22;761;50.074;8.228;2022-11-14T01:21:32;5.60;1.00
1536;DHT22;761;50.074;8.228;2022-11-14T01:24:19;5.70;1.00
1536;DHT22;761;50.074;8.228;2022-11-14T01:27:07;5.90;1.00
1536;DHT22;761;50.074;8.228;2022-11-14T01:29:54;5.90;1.00
1536;DHT22;761;50.074;8.228;2022-11-14T01:32:40;5.70;1.00
1536;DHT22;761;50.074;8.228;2022-11-14T01:35:30;5.60;1.00
1536;DHT22;761;50.074;8.228;2022-11-14T01:38:17;5.60;1.00
1536;DHT22;761;50.074;8.228;2022-11-14T01:41:05;5.60;1.00
1536;DHT22;761;50.074;8.228;2022-11-14T01:43:53;5.70;1.00
1536;DHT22;761;50.074;8.228;2022-11-14T01:46:41;5.70;1.00
1536;DHT22;761;50.074;8.228;2022-11-14T01:49:35;5.60;1.00
1536;DHT22;761;50.074;8.228;2022-11-14T01:52:25;5.70;1.00
1536;DHT22;761;50.074;8.228;2022-11-14T01:55:13;5.80;1.00
1536;DHT22;761;50.074;8.228;2022-11-14T01:58:00;6.00;1.00
1536;DHT22;761;50.074;8.228;2022-11-14T02:00:48;6.00;1.00
1536;DHT22;761;50.074;8.228;2022-11-14T02:03:38;6.00;1.00
1536;DHT22;761;50.074;8.228;2022-11-14T02:06:29;6.10;1.00
1536;DHT22;761;50.074;8.228;2022-11-14T02:09:16;5.80;1.00
1536;DHT22;761;50.074;8.228;2022-11-14T02:12:06;5.60;1.00
1536;DHT22;761;50.074;8.228;2022-11-14T02:14:55;5.80;1.00
1536;DHT22;761;50.074;8.228;2022-11-14T02:17:44;5.80;1.00
1536;DHT22;761;50.074;8.228;2022-11-14T02:20:35;5.60;1.00
1536;DHT22;761;50.074;8.228;2022-11-14T02:23:27;5.40;1.00
1536;DHT22;761;50.074;8.228;2022-11-14T02:26:16;5.10;1.00
1536;DHT22;761;50.074;8.228;2022-11-14T02:29:05;5.00;1.00
1536;DHT22;761;50.074;8.228;2022-11-14T02:31:52;4.90;1.00
1536;DHT22;761;50.074;8.228;2022-11-14T02:34:38;4.80;1.00
1536;DHT22;761;50.074;8.228;2022-11-14T02:37:26;4.90;1.00
1536;DHT22;761;50.074;8.228;2022-11-14T02:40:13;4.90;1.00
1536;DHT22;761;50.074;8.228;2022-11-14T02:43:00;4.90;1.00
1536;DHT22;761;50.074;8.228;2022-11-14T02:45:47;5.00;1.00
1536;DHT22;761;50.074;8.228;2022-11-14T02:48:33;5.10;1.00
1536;DHT22;761;50.074;8.228;2022-11-14T02:51:20;5.20;1.00
1536;DHT22;761;50.074;8.228;2022-11-14T02:54:08;5.20;1.00
1536;DHT22;761;50.074;8.228;2022-11-14T02:56:54;5.30;1.00
1536;DHT22;761;50.074;8.228;2022-11-14T02:59:41;5.30;1.00
1536;DHT22;761;50.074;8.228;2022-11-14T03:02:28;5.60;1.00
1536;DHT22;761;50.074;8.228;2022-11-14T03:05:15;5.60;1.00
1536;DHT22;761;50.074;8.228;2022-11-14T03:08:02;5.50;1.00
1536;DHT22;761;50.074;8.228;2022-11-14T03:10:50;5.80;1.00
1536;DHT22;761;50.074;8.228;2022-11-14T03:13:37;5.70;1.00
1536;DHT22;761;50.074;8.228;2022-11-14T03:16:23;5.40;1.00
1536;DHT22;761;50.074;8.228;2022-11-14T03:19:10;5.30;1.00
1536;DHT22;761;50.074;8.228;2022-11-14T03:21:57;5.50;1.00
1536;DHT22;761;50.074;8.228;2022-11-14T03:24:43;5.50;1.00
1536;DHT22;761;50.074;8.228;2022-11-14T03:27:31;5.50;1.00
1536;DHT22;761;50.074;8.228;2022-11-14T03:30:18;5.40;1.00
1536;DHT22;761;50.074;8.228;2022-11-14T03:33:06;5.40;1.00
1536;DHT22;761;50.074;8.228;2022-11-14T03:35:52;5.50;1.00
1536;DHT22;761;50.074;8.228;2022-11-14T03:38:39;5.40;1.00
1536;DHT22;761;50.074;8.228;2022-11-14T03:41:26;5.40;1.00
1536;DHT22;761;50.074;8.228;2022-11-14T03:44:14;5.40;1.00
1536;DHT22;761;50.074;8.228;2022-11-14T03:47:01;5.50;1.00
1536;DHT22;761;50.074;8.228;2022-11-14T03:49:48;5.40;1.00
1536;DHT22;761;50.074;8.228;2022-11-14T03:52:34;5.40;1.00
1536;DHT22;761;50.074;8.228;2022-11-14T03:55:21;5.40;1.00
1536;DHT22;761;50.074;8.228;2022-11-14T03:58:08;5.40;1.00
1536;DHT22;761;50.074;8.228;2022-11-14T04:00:56;5.40;1.00
1536;DHT22;761;50.074;8.228;2022-11-14T04:03:43;5.30;1.00
1536;DHT22;761;50.074;8.228;2022-11-14T04:06:31;5.20;1.00
1536;DHT22;761;50.074;8.228;2022-11-14T04:09:17;5.40;1.00
1536;DHT22;761;50.074;8.228;2022-11-14T04:12:05;5.40;1.00
1536;DHT22;761;50.074;8.228;2022-11-14T04:14:58;5.50;1.00
1536;DHT22;761;50.074;8.228;2022-11-14T04:17:46;5.50;1.00
1536;DHT22;761;50.074;8.228;2022-11-14T04:20:33;5.60;1.00
1536;DHT22;761;50.074;8.228;2022-11-14T04:23:20;5.80;1.00
1536;DHT22;761;50.074;8.228;2022-11-14T04:26:06;5.80;1.00
1536;DHT22;761;50.074;8.228;2022-11-14T04:28:53;5.90;1.00
1536;DHT22;761;50.074;8.228;2022-11-14T04:31:40;5.90;1.00
1536;DHT22;761;50.074;8.228;2022-11-14T04:34:28;5.90;1.00
1536;DHT22;761;50.074;8.228;2022-11-14T04:37:15;5.90;1.00
1536;DHT22;761;50.074;8.228;2022-11-14T04:40:03;5.70;1.00
1536;DHT22;761;50.074;8.228;2022-11-14T04:42:50;5.70;1.00
1536;DHT22;761;50.074;8.228;2022-11-14T04:45:36;5.70;1.00
1536;DHT22;761;50.074;8.228;2022-11-14T04:48:23;5.70;1.00
1536;DHT22;761;50.074;8.228;2022-11-14T04:51:11;5.70;1.00
1536;DHT22;761;50.074;8.228;2022-11-14T04:53:58;5.80;1.00
1536;DHT22;761;50.074;8.228;2022-11-14T04:56:45;5.80;1.00
1536;DHT22;761;50.074;8.228;2022-11-14T04:59:31;5.80;1.00
1536;DHT22;761;50.074;8.228;2022-11-14T05:02:18;5.80;1.00
1536;DHT22;761;50.074;8.228;2022-11-14T05:05:05;5.70;1.00
1536;DHT22;761;50.074;8.228;2022-11-14T05:07:54;5.70;1.00
1536;DHT22;761;50.074;8.228;2022-11-14T05:10:42;5.70;1.00
1536;DHT22;761;50.074;8.228;2022-11-14T05:13:29;5.90;1.00
1536;DHT22;761;50.074;8.228;2022-11-14T05:16:16;6.00;1.00
1536;DHT22;761;50.074;8.228;2022-11-14T05:19:03;6.00;1.00
1536;DHT22;761;50.074;8.228;2022-11-14T05:21:49;6.00;1.00
1536;DHT22;761;50.074;8.228;2022-11-14T05:24:37;6.10;1.00
1536;DHT22;761;50.074;8.228;2022-11-14T05:27:25;5.90;1.00
1536;DHT22;761;50.074;8.228;2022-11-14T05:30:12;6.00;1.00
1536;DHT22;761;50.074;8.228;2022-11-14T05:32:58;6.00;1.00
1536;DHT22;761;50.074;8.228;2022-11-14T05:35:45;6.10;1.00
1536;DHT22;761;50.074;8.228;2022-11-14T05:38:32;6.10;1.00
1536;DHT22;761;50.074;8.228;2022-11-14T05:41:20;6.20;1.00
1536;DHT22;761;50.074;8.228;2022-11-14T05:44:07;6.20;1.00
1536;DHT22;761;50.074;8.228;2022-11-14T05:46:54;6.20;1.00
1536;DHT22;761;50.074;8.228;2022-11-14T05:49:41;6.20;1.00
1536;DHT22;761;50.074;8.228;2022-11-14T05:52:27;6.20;1.00
1536;DHT22;761;50.074;8.228;2022-11-14T05:55:14;6.20;1.00
1536;DHT22;761;50.074;8.228;2022-11-14T05:58:10;6.20;1.00
1536;DHT22;761;50.074;8.228;2022-11-14T06:01:01;6.20;1.00
1536;DHT22;761;50.074;8.228;2022-11-14T06:03:48;6.20;1.00
1536;DHT22;761;50.074;8.228;2022-11-14T06:06:34;6.20;1.00
1536;DHT22;761;50.074;8.228;2022-11-14T06:09:21;6.20;1.00
1536;DHT22;761;50.074;8.228;2022-11-14T06:12:08;6.30;1.00
1536;DHT22;761;50.074;8.228;2022-11-14T06:14:56;6.10;1.00
1536;DHT22;761;50.074;8.228;2022-11-14T06:17:44;6.10;1.00
1536;DHT22;761;50.074;8.228;2022-11-14T06:20:31;6.00;1.00
1536;DHT22;761;50.074;8.228;2022-11-14T06:23:17;5.90;1.00
1536;DHT22;761;50.074;8.228;2022-11-14T06:26:14;5.90;1.00
1536;DHT22;761;50.074;8.228;2022-11-14T06:29:02;5.90;1.00
1536;DHT22;761;50.074;8.228;2022-11-14T06:31:50;5.90;1.00
1536;DHT22;761;50.074;8.228;2022-11-14T06:34:37;5.90;1.00
1536;DHT22;761;50.074;8.228;2022-11-14T06:37:23;5.90;1.00
1536;DHT22;761;50.074;8.228;2022-11-14T06:40:16;5.90;1.00
1536;DHT22;761;50.074;8.228;2022-11-14T06:43:03;6.00;1.00
1536;DHT22;761;50.074;8.228;2022-11-14T06:45:52;6.20;1.00
1536;DHT22;761;50.074;8.228;2022-11-14T06:48:41;6.20;1.00
1536;DHT22;761;50.074;8.228;2022-11-14T06:51:29;6.30;1.00
1536;DHT22;761;50.074;8.228;2022-11-14T06:54:16;6.20;1.00
1536;DHT22;761;50.074;8.228;2022-11-14T06:57:03;6.20;1.00
1536;DHT22;761;50.074;8.228;2022-11-14T06:59:50;6.20;1.00
1536;DHT22;761;50.074;8.228;2022-11-14T07:02:37;6.20;1.00
1536;DHT22;761;50.074;8.228;2022-11-14T07:05:25;6.20;1.00
1536;DHT22;761;50.074;8.228;2022-11-14T07:08:12;6.20;1.00
1536;DHT22;761;50.074;8.228;2022-11-14T07:11:06;6.10;1.00
1536;DHT22;761;50.074;8.228;2022-11-14T07:13:55;6.10;1.00
1536;DHT22;761;50.074;8.228;2022-11-14T07:16:43;6.10;1.00
1536;DHT22;761;50.074;8.228;2022-11-14T07:19:30;6.30;1.00
1536;DHT22;761;50.074;8.228;2022-11-14T07:22:18;6.30;1.00
1536;DHT22;761;50.074;8.228;2022-11-14T07:25:06;6.20;1.00
1536;DHT22;761;50.074;8.228;2022-11-14T07:27:56;6.20;1.00
1536;DHT22;761;50.074;8.228;2022-11-14T07:30:42;6.20;1.00
1536;DHT22;761;50.074;8.228;2022-11-14T07:33:30;6.20;1.00
1536;DHT22;761;50.074;8.228;2022-11-14T07:36:17;6.20;1.00
1536;DHT22;761;50.074;8.228;2022-11-14T07:39:05;6.30;1.00
1536;DHT22;761;50.074;8.228;2022-11-14T07:41:52;6.30;1.00
1536;DHT22;761;50.074;8.228;2022-11-14T07:44:39;6.30;1.00
1536;DHT22;761;50.074;8.228;2022-11-14T07:47:27;6.30;1.00
1536;DHT22;761;50.074;8.228;2022-11-14T07:50:13;6.40;1.00
1536;DHT22;761;50.074;8.228;2022-11-14T07:53:05;6.30;1.00
1536;DHT22;761;50.074;8.228;2022-11-14T07:55:54;6.30;1.00
1536;DHT22;761;50.074;8.228;2022-11-14T07:58:42;6.30;1.00
1536;DHT22;761;50.074;8.228;2022-11-14T08:01:30;6.40;1.00
1536;DHT22;761;50.074;8.228;2022-11-14T08:04:22;6.40;1.00
1536;DHT22;761;50.074;8.228;2022-11-14T08:07:09;6.40;1.00
1536;DHT22;761;50.074;8.228;2022-11-14T08:09:56;6.40;1.00
1536;DHT22;761;50.074;8.228;2022-11-14T08:12:45;6.60;1.00
1536;DHT22;761;50.074;8.228;2022-11-14T08:15:49;6.80;1.00
1536;DHT22;761;50.074;8.228;2022-11-14T08:18:36;6.70;1.00
1536;DHT22;761;50.074;8.228;2022-11-14T08:21:24;6.80;1.00
1536;DHT22;761;50.074;8.228;2022-11-14T08:24:12;6.70;1.00
1536;DHT22;761;50.074;8.228;2022-11-14T08:26:59;6.70;1.00
1536;DHT22;761;50.074;8.228;2022-11-14T08:29:47;6.60;1.00
1536;DHT22;761;50.074;8.228;2022-11-14T08:32:39;6.50;1.00
1536;DHT22;761;50.074;8.228;2022-11-14T08:35:26;6.50;1.00
1536;DHT22;761;50.074;8.228;2022-11-14T08:38:14;6.40;1.00
1536;DHT22;761;50.074;8.228;2022-11-14T08:41:02;6.30;1.00
1536;DHT22;761;50.074;8.228;2022-11-14T08:43:50;6.40;1.00
1536;DHT22;761;50.074;8.228;2022-11-14T08:46:39;6.30;1.00
1536;DHT22;761;50.074;8.228;2022-11-14T08:49:27;6.30;1.00
1536;DHT22;761;50.074;8.228;2022-11-14T08:52:14;6.40;1.00
1536;DHT22;761;50.074;8.228;2022-11-14T08:55:05;6.40;1.00
1536;DHT22;761;50.074;8.228;2022-11-14T08:57:53;6.50;1.00
1536;DHT22;761;50.074;8.228;2022-11-14T09:00:41;6.50;1.00
1536;DHT22;761;50.074;8.228;2022-11-14T09:03:31;6.50;1.00
1536;DHT22;761;50.074;8.228;2022-11-14T09:06:18;6.50;1.00
1536;DHT22;761;50.074;8.228;2022-11-14T09:09:06;6.60;1.00
1536;DHT22;761;50.074;8.228;2022-11-14T09:11:53;6.50;1.00
1536;DHT22;761;50.074;8.228;2022-11-14T09:14:43;6.60;1.00
1536;DHT22;761;50.074;8.228;2022-11-14T09:17:32;6.60;1.00
1536;DHT22;761;50.074;8.228;2022-11-14T09:20:22;6.60;1.00
1536;DHT22;761;50.074;8.228;2022-11-14T09:23:18;6.60;1.00
1536;DHT22;761;50.074;8.228;2022-11-14T09:26:10;6.40;1.00
1536;DHT22;761;50.074;8.228;2022-11-14T09:28:57;6.50;1.00
1536;DHT22;761;50.074;8.228;2022-11-14T09:31:45;6.50;1.00
1536;DHT22;761;50.074;8.228;2022-11-14T09:34:33;6.50;1.00
1536;DHT22;761;50.074;8.228;2022-11-14T09:37:24;6.60;1.00
1536;DHT22;761;50.074;8.228;2022-11-14T09:40:12;6.60;1.00
1536;DHT22;761;50.074;8.228;2022-11-14T09:43:22;6.70;1.00
1536;DHT22;761;50.074;8.228;2022-11-14T09:46:17;6.80;1.00
1536;DHT22;761;50.074;8.228;2022-11-14T09:49:10;6.80;1.00
1536;DHT22;761;50.074;8.228;2022-11-14T09:52:08;6.80;1.00
1536;DHT22;761;50.074;8.228;2022-11-14T09:55:03;6.90;1.00
1536;DHT22;761;50.074;8.228;2022-11-14T09:57:56;6.80;1.00
1536;DHT22;761;50.074;8.228;2022-11-14T10:00:49;6.80;1.00
1536;DHT22;761;50.074;8.228;2022-11-14T10:03:43;6.80;1.00
1536;DHT22;761;50.074;8.228;2022-11-14T10:06:38;6.90;1.00
1536;DHT22;761;50.074;8.228;2022-11-14T10:09:45;6.90;1.00
1536;DHT22;761;50.074;8.228;2022-11-14T10:12:43;6.90;1.00
1536;DHT22;761;50.074;8.228;2022-11-14T10:15:45;7.00;1.00
1536;DHT22;761;50.074;8.228;2022-11-14T10:18:49;6.90;1.00
1536;DHT22;761;50.074;8.228;2022-11-14T10:21:49;7.00;1.00
1536;DHT22;761;50.074;8.228;2022-11-14T10:25:11;7.10;1.00
1536;DHT22;761;50.074;8.228;2022-11-14T10:28:17;7.30;1.00
1536;DHT22;761;50.074;8.228;2022-11-14T10:31:13;7.50;1.00
1536;DHT22;761;50.074;8.228;2022-11-14T10:34:13;7.50;1.00
1536;DHT22;761;50.074;8.228;2022-11-14T10:37:16;7.50;1.00
1536;DHT22;761;50.074;8.228;2022-11-14T10:40:15;7.50;1.00
1536;DHT22;761;50.074;8.228;2022-11-14T10:43:15;7.40;1.00
1536;DHT22;761;50.074;8.228;2022-11-14T10:46:07;7.70;1.00
1536;DHT22;761;50.074;8.228;2022-11-14T10:48:55;7.50;1.00
1536;DHT22;761;50.074;8.228;2022-11-14T10:51:50;7.50;1.00
1536;DHT22;761;50.074;8.228;2022-11-14T10:54:43;7.50;1.00
1536;DHT22;761;50.074;8.228;2022-11-14T10:57:32;7.50;1.00
1536;DHT22;761;50.074;8.228;2022-11-14T11:00:21;7.60;1.00
1536;DHT22;761;50.074;8.228;2022-11-14T11:03:09;7.70;1.00
1536;DHT22;761;50.074;8.228;2022-11-14T11:05:57;7.90;1.00
1536;DHT22;761;50.074;8.228;2022-11-14T11:08:47;7.90;1.00
1536;DHT22;761;50.074;8.228;2022-11-14T11:11:55;8.00;1.00
1536;DHT22;761;50.074;8.228;2022-11-14T11:18:25;8.40;1.00
1536;DHT22;761;50.074;8.228;2022-11-14T11:21:18;8.40;1.00
1536;DHT22;761;50.074;8.228;2022-11-14T11:24:08;8.50;1.00
1536;DHT22;761;50.074;8.228;2022-11-14T11:27:11;8.70;1.00
1536;DHT22;761;50.074;8.228;2022-11-14T11:30:17;8.70;1.00
1536;DHT22;761;50.074;8.228;2022-11-14T11:33:15;8.80;1.00
1536;DHT22;761;50.074;8.228;2022-11-14T11:36:09;8.90;1.00
1536;DHT22;761;50.074;8.228;2022-11-14T11:38:59;8.90;1.00
1536;DHT22;761;50.074;8.228;2022-11-14T11:41:46;9.00;1.00
1536;DHT22;761;50.074;8.228;2022-11-14T11:44:58;9.10;1.00
1536;DHT22;761;50.074;8.228;2022-11-14T11:47:50;9.20;1.00
1536;DHT22;761;50.074;8.228;2022-11-14T11:50:39;9.40;1.00
1536;DHT22;761;50.074;8.228;2022-11-14T11:53:32;9.50;1.00
1536;DHT22;761;50.074;8.228;2022-11-14T11:56:23;9.50;1.00
1536;DHT22;761;50.074;8.228;2022-11-14T11:59:23;9.50;1.00
1536;DHT22;761;50.074;8.228;2022-11-14T12:02:20;9.40;1.00
1536;DHT22;761;50.074;8.228;2022-11-14T12:05:13;9.50;1.00
1536;DHT22;761;50.074;8.228;2022-11-14T12:08:03;9.50;1.00
1536;DHT22;761;50.074;8.228;2022-11-14T12:10:54;9.70;1.00
1536;DHT22;761;50.074;8.228;2022-11-14T12:17:21;9.70;1.00
1536;DHT22;761;50.074;8.228;2022-11-14T12:20:39;9.80;1.00
1536;DHT22;761;50.074;8.228;2022-11-14T12:23:55;9.90;1.00
1536;DHT22;761;50.074;8.228;2022-11-14T12:26:57;10.00;1.00
1536;DHT22;761;50.074;8.228;2022-11-14T12:30:12;9.90;1.00
1536;DHT22;761;50.074;8.228;2022-11-14T12:33:02;9.90;1.00
1536;DHT22;761;50.074;8.228;2022-11-14T12:35:59;9.80;1.00
1536;DHT22;761;50.074;8.228;2022-11-14T12:38:53;9.80;1.00
1536;DHT22;761;50.074;8.228;2022-11-14T12:41:40;9.80;1.00
1536;DHT22;761;50.074;8.228;2022-11-14T12:44:34;9.80;1.00
1536;DHT22;761;50.074;8.228;2022-11-14T12:47:26;9.80;1.00
1536;DHT22;761;50.074;8.228;2022-11-14T12:50:39;9.80;1.00
1536;DHT22;761;50.074;8.228;2022-11-14T12:53:40;9.70;1.00
1536;DHT22;761;50.074;8.228;2022-11-14T12:56:54;9.70;1.00
1536;DHT22;761;50.074;8.228;2022-11-14T12:59:58;9.60;1.00
1536;DHT22;761;50.074;8.228;2022-11-14T13:03:17;9.60;1.00
1536;DHT22;761;50.074;8.228;2022-11-14T13:06:08;9.50;1.00
1536;DHT22;761;50.074;8.228;2022-11-14T13:09:19;9.50;1.00
1536;DHT22;761;50.074;8.228;2022-11-14T13:12:28;9.50;1.00
1536;DHT22;761;50.074;8.228;2022-11-14T13:15:51;9.60;1.00
1536;DHT22;761;50.074;8.228;2022-11-14T13:19:13;9.60;1.00
1536;DHT22;761;50.074;8.228;2022-11-14T13:22:35;9.60;1.00
1536;DHT22;761;50.074;8.228;2022-11-14T13:25:24;9.60;1.00
1536;DHT22;761;50.074;8.228;2022-11-14T13:28:42;9.60;1.00
1536;DHT22;761;50.074;8.228;2022-11-14T13:31:46;9.60;1.00
1536;DHT22;761;50.074;8.228;2022-11-14T13:34:41;9.60;1.00
1536;DHT22;761;50.074;8.228;2022-11-14T13:38:00;9.50;1.00
1536;DHT22;761;50.074;8.228;2022-11-14T13:41:04;9.50;1.00
1536;DHT22;761;50.074;8.228;2022-11-14T13:44:08;9.60;1.00
1536;DHT22;761;50.074;8.228;2022-11-14T13:47:20;9.60;1.00
1536;DHT22;761;50.074;8.228;2022-11-14T13:50:13;9.70;1.00
1536;DHT22;761;50.074;8.228;2022-11-14T13:53:11;9.70;1.00
1536;DHT22;761;50.074;8.228;2022-11-14T13:56:04;9.70;1.00
1536;DHT22;761;50.074;8.228;2022-11-14T14:02:21;9.70;1.00
1536;DHT22;761;50.074;8.228;2022-11-14T14:05:20;9.80;1.00
1536;DHT22;761;50.074;8.228;2022-11-14T14:08:13;9.80;1.00
1536;DHT22;761;50.074;8.228;2022-11-14T14:11:25;9.80;1.00
1536;DHT22;761;50.074;8.228;2022-11-14T14:14:25;9.90;1.00
1536;DHT22;761;50.074;8.228;2022-11-14T14:17:23;9.90;1.00
1536;DHT22;761;50.074;8.228;2022-11-14T14:20:29;9.80;1.00
1536;DHT22;761;50.074;8.228;2022-11-14T14:23:27;9.80;1.00
1536;DHT22;761;50.074;8.228;2022-11-14T14:26:28;9.80;1.00
1536;DHT22;761;50.074;8.228;2022-11-14T14:29:22;9.80;1.00
1536;DHT22;761;50.074;8.228;2022-11-14T14:32:12;9.80;1.00
1536;DHT22;761;50.074;8.228;2022-11-14T14:35:22;9.90;1.00
1536;DHT22;761;50.074;8.228;2022-11-14T14:38:12;9.80;1.00
1536;DHT22;761;50.074;8.228;2022-11-14T14:41:07;9.80;1.00
1536;DHT22;761;50.074;8.228;2022-11-14T14:43:55;9.80;1.00
1536;DHT22;761;50.074;8.228;2022-11-14T14:46:43;9.80;1.00
1536;DHT22;761;50.074;8.228;2022-11-14T14:49:34;9.80;1.00
1536;DHT22;761;50.074;8.228;2022-11-14T14:52:28;9.80;1.00
1536;DHT22;761;50.074;8.228;2022-11-14T14:55:20;9.80;1.00
1536;DHT22;761;50.074;8.228;2022-11-14T14:58:15;9.80;1.00
1536;DHT22;761;50.074;8.228;2022-11-14T15:01:09;9.90;1.00
1536;DHT22;761;50.074;8.228;2022-11-14T15:04:02;9.90;1.00
1536;DHT22;761;50.074;8.228;2022-11-14T15:06:52;9.80;1.00
1536;DHT22;761;50.074;8.228;2022-11-14T15:09:52;9.80;1.00
1536;DHT22;761;50.074;8.228;2022-11-14T15:12:39;9.80;1.00
1536;DHT22;761;50.074;8.228;2022-11-14T15:15:29;9.80;1.00
1536;DHT22;761;50.074;8.228;2022-11-14T15:18:22;9.70;1.00
1536;DHT22;761;50.074;8.228;2022-11-14T15:21:15;9.70;1.00
1536;DHT22;761;50.074;8.228;2022-11-14T15:24:12;9.80;1.00
1536;DHT22;761;50.074;8.228;2022-11-14T15:27:04;10.00;1.00
1536;DHT22;761;50.074;8.228;2022-11-14T15:29:59;9.80;1.00
1536;DHT22;761;50.074;8.228;2022-11-14T15:32:48;9.70;1.00
1536;DHT22;761;50.074;8.228;2022-11-14T15:35:37;9.80;1.00
1536;DHT22;761;50.074;8.228;2022-11-14T15:38:28;9.80;1.00
1536;DHT22;761;50.074;8.228;2022-11-14T15:41:32;9.80;1.00
1536;DHT22;761;50.074;8.228;2022-11-14T15:44:32;9.70;1.00
1536;DHT22;761;50.074;8.228;2022-11-14T15:47:24;9.80;1.00
1536;DHT22;761;50.074;8.228;2022-11-14T15:50:27;9.90;1.00
1536;DHT22;761;50.074;8.228;2022-11-14T15:53:24;9.90;1.00
1536;DHT22;761;50.074;8.228;2022-11-14T15:56:17;9.90;1.00
1536;DHT22;761;50.074;8.228;2022-11-14T15:59:04;9.80;1.00
1536;DHT22;761;50.074;8.228;2022-11-14T16:01:56;9.90;1.00
1536;DHT22;761;50.074;8.228;2022-11-14T16:04:44;9.90;1.00
1536;DHT22;761;50.074;8.228;2022-11-14T16:07:32;10.10;1.00
1536;DHT22;761;50.074;8.228;2022-11-14T16:10:21;10.10;1.00
1536;DHT22;761;50.074;8.228;2022-11-14T16:13:09;10.00;1.00
1536;DHT22;761;50.074;8.228;2022-11-14T16:15:56;10.10;1.00
1536;DHT22;761;50.074;8.228;2022-11-14T16:18:44;10.10;1.00
1536;DHT22;761;50.074;8.228;2022-11-14T16:21:32;9.90;1.00
1536;DHT22;761;50.074;8.228;2022-11-14T16:24:20;9.80;1.00
1536;DHT22;761;50.074;8.228;2022-11-14T16:27:07;9.90;1.00
1536;DHT22;761;50.074;8.228;2022-11-14T16:29:53;10.00;1.00
1536;DHT22;761;50.074;8.228;2022-11-14T16:32:42;10.20;1.00
1536;DHT22;761;50.074;8.228;2022-11-14T16:35:32;10.20;1.00
1536;DHT22;761;50.074;8.228;2022-11-14T16:38:19;10.00;1.00
1536;DHT22;761;50.074;8.228;2022-11-14T16:41:06;10.20;1.00
1536;DHT22;761;50.074;8.228;2022-11-14T16:43:54;10.30;1.00
1536;DHT22;761;50.074;8.228;2022-11-14T16:46:41;10.40;1.00
1536;DHT22;761;50.074;8.228;2022-11-14T16:49:29;10.40;1.00
1536;DHT22;761;50.074;8.228;2022-11-14T16:55:10;10.30;1.00
1536;DHT22;761;50.074;8.228;2022-11-14T16:57:57;10.00;1.00
1536;DHT22;761;50.074;8.228;2022-11-14T17:00:47;10.10;1.00
1536;DHT22;761;50.074;8.228;2022-11-14T17:04:01;10.10;1.00
1536;DHT22;761;50.074;8.228;2022-11-14T17:06:50;10.10;1.00
1536;DHT22;761;50.074;8.228;2022-11-14T17:09:38;10.00;1.00
1536;DHT22;761;50.074;8.228;2022-11-14T17:12:25;10.00;1.00
1536;DHT22;761;50.074;8.228;2022-11-14T17:15:12;10.10;1.00
1536;DHT22;761;50.074;8.228;2022-11-14T17:18:00;10.10;1.00
1536;DHT22;761;50.074;8.228;2022-11-14T17:20:49;10.10;1.00
1536;DHT22;761;50.074;8.228;2022-11-14T17:23:38;10.20;1.00
1536;DHT22;761;50.074;8.228;2022-11-14T17:26:27;10.20;1.00
1536;DHT22;761;50.074;8.228;2022-11-14T17:29:15;10.20;1.00
1536;DHT22;761;50.074;8.228;2022-11-14T17:32:03;10.20;1.00
1536;DHT22;761;50.074;8.228;2022-11-14T17:34:50;10.40;1.00
1536;DHT22;761;50.074;8.228;2022-11-14T17:37:37;10.50;1.00
1536;DHT22;761;50.074;8.228;2022-11-14T17:40:24;10.30;1.00
1536;DHT22;761;50.074;8.228;2022-11-14T17:43:14;10.20;1.00
1536;DHT22;761;50.074;8.228;2022-11-14T17:46:01;10.00;1.00
1536;DHT22;761;50.074;8.228;2022-11-14T17:48:49;9.90;1.00
1536;DHT22;761;50.074;8.228;2022-11-14T17:51:36;9.90;1.00
1536;DHT22;761;50.074;8.228;2022-11-14T17:54:23;9.90;1.00
1536;DHT22;761;50.074;8.228;2022-11-14T18:00:01;10.10;1.00
1536;DHT22;761;50.074;8.228;2022-11-14T18:02:49;10.00;1.00
1536;DHT22;761;50.074;8.228;2022-11-14T18:05:36;10.00;1.00
1536;DHT22;761;50.074;8.228;2022-11-14T18:08:23;9.90;1.00
1536;DHT22;761;50.074;8.228;2022-11-14T18:11:14;10.00;1.00
1536;DHT22;761;50.074;8.228;2022-11-14T18:14:02;10.00;1.00
1536;DHT22;761;50.074;8.228;2022-11-14T18:16:53;10.10;1.00
1536;DHT22;761;50.074;8.228;2022-11-14T18:19:57;10.00;1.00
1536;DHT22;761;50.074;8.228;2022-11-14T18:25:44;10.10;1.00
1536;DHT22;761;50.074;8.228;2022-11-14T18:28:31;10.30;1.00
1536;DHT22;761;50.074;8.228;2022-11-14T18:31:19;10.30;1.00
1536;DHT22;761;50.074;8.228;2022-11-14T18:34:13;10.30;1.00
1536;DHT22;761;50.074;8.228;2022-11-14T18:37:00;10.30;1.00
1536;DHT22;761;50.074;8.228;2022-11-14T18:39:48;10.00;1.00
1536;DHT22;761;50.074;8.228;2022-11-14T18:42:36;9.90;1.00
1536;DHT22;761;50.074;8.228;2022-11-14T18:45:23;9.90;1.00
1536;DHT22;761;50.074;8.228;2022-11-14T18:48:12;10.00;1.00
1536;DHT22;761;50.074;8.228;2022-11-14T18:51:02;9.90;1.00
1536;DHT22;761;50.074;8.228;2022-11-14T18:53:50;9.90;1.00
1536;DHT22;761;50.074;8.228;2022-11-14T18:56:40;10.00;1.00
1536;DHT22;761;50.074;8.228;2022-11-14T18:59:32;10.00;1.00
1536;DHT22;761;50.074;8.228;2022-11-14T19:02:20;10.00;1.00
1536;DHT22;761;50.074;8.228;2022-11-14T19:05:11;9.90;1.00
1536;DHT22;761;50.074;8.228;2022-11-14T19:13:40;10.00;1.00
1536;DHT22;761;50.074;8.228;2022-11-14T19:19:16;10.10;1.00
1536;DHT22;761;50.074;8.228;2022-11-14T19:22:04;10.10;1.00
1536;DHT22;761;50.074;8.228;2022-11-14T19:24:53;10.10;1.00
1536;DHT22;761;50.074;8.228;2022-11-14T19:27:49;10.30;1.00
1536;DHT22;761;50.074;8.228;2022-11-14T19:30:37;10.30;1.00
1536;DHT22;761;50.074;8.228;2022-11-14T19:33:24;10.20;1.00
1536;DHT22;761;50.074;8.228;2022-11-14T19:36:13;10.20;1.00
1536;DHT22;761;50.074;8.228;2022-11-14T19:39:12;10.20;1.00
1536;DHT22;761;50.074;8.228;2022-11-14T19:42:01;10.20;1.00
1536;DHT22;761;50.074;8.228;2022-11-14T19:44:49;10.20;1.00
1536;DHT22;761;50.074;8.228;2022-11-14T19:47:37;10.10;1.00
1536;DHT22;761;50.074;8.228;2022-11-14T19:53:13;9.90;1.00
1536;DHT22;761;50.074;8.228;2022-11-14T19:56:02;9.80;1.00
1536;DHT22;761;50.074;8.228;2022-11-14T19:58:54;9.70;1.00
1536;DHT22;761;50.074;8.228;2022-11-14T20:01:43;9.70;1.00